sensor_id;sensor_type;location;lat;lon;timestamp;temperature;humidity
21759;DHT22;11041;50.854;20.580;2024-03-23T00:55:03;10.30;99.90
21759;DHT22;11041;50.854;20.580;2024-03-23T00:57:33;10.30;99.90
21759;DHT22;11041;50.854;20.580;2024-03-23T00:59:59;10.20;99.90
21759;DHT22;11041;50.854;20.580;2024-03-23T01:02:26;10.20;99.90
21759;DHT22;11041;50.854;20.580;2024-03-23T01:04:54;10.20;99.90
21759;DHT22;11041;50.854;20.580;2024-03-23T01:07:21;10.20;99.90
21759;DHT22;11041;50.854;20.580;2024-03-23T01:09:49;10.20;99.90
21759;DHT22;11041;50.854;20.580;2024-03-23T01:12:20;10.20;99.90
21759;DHT22;11041;50.854;20.580;2024-03-23T01:14:46;10.20;99.90
21759;DHT22;11041;50.854;20.580;2024-03-23T01:17:15;10.30;99.90
21759;DHT22;11041;50.854;20.580;2024-03-23T01:19:41;10.20;99.90
21759;DHT22;11041;50.854;20.580;2024-03-23T01:22:08;10.20;99.90
21759;DHT22;11041;50.854;20.580;2024-03-23T01:24:36;10.20;99.90
21759;DHT22;11041;50.854;20.580;2024-03-23T01:27:03;10.20;99.90
21759;DHT22;11041;50.854;20.580;2024-03-23T01:29:29;10.20;99.90
21759;DHT22;11041;50.854;20.580;2024-03-23T01:31:59;10.10;99.90
21759;DHT22;11041;50.854;20.580;2024-03-23T01:34:25;10.10;99.90
21759;DHT22;11041;50.854;20.580;2024-03-23T01:36:52;10.00;99.90
21759;DHT22;11041;50.854;20.580;2024-03-23T01:39:19;9.90;99.90
21759;DHT22;11041;50.854;20.580;2024-03-23T01:41:45;9.80;99.90
21759;DHT22;11041;50.854;20.580;2024-03-23T01:44:12;9.80;99.90
21759;DHT22;11041;50.854;20.580;2024-03-23T01:46:46;9.80;99.90
21759;DHT22;11041;50.854;20.580;2024-03-23T01:49:13;9.70;99.90
21759;DHT22;11041;50.854;20.580;2024-03-23T01:51:42;9.80;99.90
21759;DHT22;11041;50.854;20.580;2024-03-23T01:54:12;9.70;99.90
21759;DHT22;11041;50.854;20.580;2024-03-23T01:56:42;9.50;99.90
21759;DHT22;11041;50.854;20.580;2024-03-23T01:59:08;9.40;99.90
21759;DHT22;11041;50.854;20.580;2024-03-23T02:01:35;9.30;99.90
21759;DHT22;11041;50.854;20.580;2024-03-23T02:04:02;9.30;99.90
21759;DHT22;11041;50.854;20.580;2024-03-23T02:06:29;9.40;99.90
21759;DHT22;11041;50.854;20.580;2024-03-23T02:08:58;9.40;99.90
21759;DHT22;11041;50.854;20.580;2024-03-23T02:11:28;9.30;99.90
21759;DHT22;11041;50.854;20.580;2024-03-23T02:13:56;9.30;99.90
21759;DHT22;11041;50.854;20.580;2024-03-23T02:16:25;9.40;99.90
21759;DHT22;11041;50.854;20.580;2024-03-23T02:18:52;9.50;99.90
21759;DHT22;11041;50.854;20.580;2024-03-23T02:21:18;9.50;99.90
21759;DHT22;11041;50.854;20.580;2024-03-23T02:23:45;9.50;99.90
21759;DHT22;11041;50.854;20.580;2024-03-23T02:26:12;9.60;99.90
21759;DHT22;11041;50.854;20.580;2024-03-23T02:28:41;9.50;99.90
21759;DHT22;11041;50.854;20.580;2024-03-23T02:31:07;9.50;99.90
21759;DHT22;11041;50.854;20.580;2024-03-23T02:33:33;9.60;99.90
21759;DHT22;11041;50.854;20.580;2024-03-23T02:36:04;9.60;99.90
21759;DHT22;11041;50.854;20.580;2024-03-23T02:38:30;9.60;99.90
21759;DHT22;11041;50.854;20.580;2024-03-23T02:41:04;9.60;99.90
21759;DHT22;11041;50.854;20.580;2024-03-23T02:43:32;9.60;99.90
21759;DHT22;11041;50.854;20.580;2024-03-23T02:45:59;9.60;99.90
21759;DHT22;11041;50.854;20.580;2024-03-23T02:48:26;9.60;99.90
21759;DHT22;11041;50.854;20.580;2024-03-23T02:50:53;9.60;99.90
21759;DHT22;11041;50.854;20.580;2024-03-23T02:53:21;9.60;99.90
21759;DHT22;11041;50.854;20.580;2024-03-23T02:55:47;9.70;99.90
21759;DHT22;11041;50.854;20.580;2024-03-23T02:58:14;9.60;99.90
21759;DHT22;11041;50.854;20.580;2024-03-23T03:00:41;9.50;99.90
21759;DHT22;11041;50.854;20.580;2024-03-23T03:03:09;9.40;99.90
21759;DHT22;11041;50.854;20.580;2024-03-23T03:05:37;9.40;99.90
21759;DHT22;11041;50.854;20.580;2024-03-23T03:08:04;9.40;99.90
21759;DHT22;11041;50.854;20.580;2024-03-23T03:10:35;9.30;99.90
21759;DHT22;11041;50.854;20.580;2024-03-23T03:13:04;9.40;99.90
21759;DHT22;11041;50.854;20.580;2024-03-23T03:15:36;9.40;99.90
21759;DHT22;11041;50.854;20.580;2024-03-23T03:18:04;9.40;99.90
21759;DHT22;11041;50.854;20.580;2024-03-23T03:20:34;9.40;99.90
21759;DHT22;11041;50.854;20.580;2024-03-23T03:23:05;9.40;99.90
21759;DHT22;11041;50.854;20.580;2024-03-23T03:25:36;9.40;99.90
21759;DHT22;11041;50.854;20.580;2024-03-23T03:28:03;9.40;99.90
21759;DHT22;11041;50.854;20.580;2024-03-23T03:30:30;9.40;99.90
21759;DHT22;11041;50.854;20.580;2024-03-23T03:32:56;9.40;99.90
21759;DHT22;11041;50.854;20.580;2024-03-23T03:35:23;9.40;99.90
21759;DHT22;11041;50.854;20.580;2024-03-23T03:37:53;9.40;99.90
21759;DHT22;11041;50.854;20.580;2024-03-23T03:40:19;9.40;99.90
21759;DHT22;11041;50.854;20.580;2024-03-23T03:42:46;9.30;99.90
21759;DHT22;11041;50.854;20.580;2024-03-23T03:45:15;9.40;99.90
21759;DHT22;11041;50.854;20.580;2024-03-23T03:47:41;9.30;99.90
21759;DHT22;11041;50.854;20.580;2024-03-23T03:50:09;9.50;99.90
21759;DHT22;11041;50.854;20.580;2024-03-23T03:52:36;9.20;99.90
21759;DHT22;11041;50.854;20.580;2024-03-23T03:55:03;9.40;99.90
21759;DHT22;11041;50.854;20.580;2024-03-23T03:57:32;9.20;99.90
21759;DHT22;11041;50.854;20.580;2024-03-23T03:59:58;9.30;99.90
21759;DHT22;11041;50.854;20.580;2024-03-23T04:02:25;9.20;99.90
21759;DHT22;11041;50.854;20.580;2024-03-23T04:04:53;9.10;99.90
21759;DHT22;11041;50.854;20.580;2024-03-23T04:07:19;9.10;99.90
21759;DHT22;11041;50.854;20.580;2024-03-23T04:09:49;9.10;99.90
21759;DHT22;11041;50.854;20.580;2024-03-23T04:12:16;9.10;99.90
21759;DHT22;11041;50.854;20.580;2024-03-23T04:14:42;9.20;99.90
21759;DHT22;11041;50.854;20.580;2024-03-23T04:17:08;9.20;99.90
21759;DHT22;11041;50.854;20.580;2024-03-23T04:19:35;9.10;99.90
21759;DHT22;11041;50.854;20.580;2024-03-23T04:22:01;9.10;99.90
21759;DHT22;11041;50.854;20.580;2024-03-23T04:24:28;9.10;99.90
21759;DHT22;11041;50.854;20.580;2024-03-23T04:26:54;9.20;99.90
21759;DHT22;11041;50.854;20.580;2024-03-23T04:29:21;9.20;99.90
21759;DHT22;11041;50.854;20.580;2024-03-23T04:31:47;9.20;99.90
21759;DHT22;11041;50.854;20.580;2024-03-23T04:34:17;9.30;99.90
21759;DHT22;11041;50.854;20.580;2024-03-23T04:36:43;9.20;99.90
21759;DHT22;11041;50.854;20.580;2024-03-23T04:39:10;9.30;99.90
21759;DHT22;11041;50.854;20.580;2024-03-23T04:41:39;9.10;99.90
21759;DHT22;11041;50.854;20.580;2024-03-23T04:44:06;9.10;99.90
21759;DHT22;11041;50.854;20.580;2024-03-23T04:46:37;9.10;99.90
21759;DHT22;11041;50.854;20.580;2024-03-23T04:49:04;9.20;99.90
21759;DHT22;11041;50.854;20.580;2024-03-23T04:51:36;9.10;99.90
21759;DHT22;11041;50.854;20.580;2024-03-23T04:54:04;9.10;99.90
21759;DHT22;11041;50.854;20.580;2024-03-23T04:56:31;9.20;99.90
21759;DHT22;11041;50.854;20.580;2024-03-23T04:59:01;9.00;99.90
21759;DHT22;11041;50.854;20.580;2024-03-23T05:01:27;9.10;99.90
21759;DHT22;11041;50.854;20.580;2024-03-23T05:03:54;9.10;99.90
21759;DHT22;11041;50.854;20.580;2024-03-23T05:06:20;8.90;99.90
21759;DHT22;11041;50.854;20.580;2024-03-23T05:08:47;9.00;99.90
21759;DHT22;11041;50.854;20.580;2024-03-23T05:11:13;9.00;99.90
21759;DHT22;11041;50.854;20.580;2024-03-23T05:13:40;8.80;99.90
21759;DHT22;11041;50.854;20.580;2024-03-23T05:16:07;9.10;99.90
21759;DHT22;11041;50.854;20.580;2024-03-23T05:18:35;9.20;99.90
21759;DHT22;11041;50.854;20.580;2024-03-23T05:21:01;9.10;99.90
21759;DHT22;11041;50.854;20.580;2024-03-23T05:23:30;9.00;99.90
21759;DHT22;11041;50.854;20.580;2024-03-23T05:25:56;9.20;99.90
21759;DHT22;11041;50.854;20.580;2024-03-23T05:28:23;9.10;99.90
21759;DHT22;11041;50.854;20.580;2024-03-23T05:30:53;9.20;99.90
21759;DHT22;11041;50.854;20.580;2024-03-23T05:33:20;9.20;99.90
21759;DHT22;11041;50.854;20.580;2024-03-23T05:35:57;9.20;99.90
21759;DHT22;11041;50.854;20.580;2024-03-23T05:38:24;9.30;99.90
21759;DHT22;11041;50.854;20.580;2024-03-23T05:40:58;9.30;99.90
21759;DHT22;11041;50.854;20.580;2024-03-23T05:43:26;9.40;99.90
21759;DHT22;11041;50.854;20.580;2024-03-23T05:46:01;9.40;99.90
21759;DHT22;11041;50.854;20.580;2024-03-23T05:48:29;9.30;99.90
21759;DHT22;11041;50.854;20.580;2024-03-23T05:50:56;9.40;99.90
21759;DHT22;11041;50.854;20.580;2024-03-23T05:53:24;9.40;99.90
21759;DHT22;11041;50.854;20.580;2024-03-23T05:55:51;9.50;99.90
21759;DHT22;11041;50.854;20.580;2024-03-23T05:58:26;9.50;99.90
21759;DHT22;11041;50.854;20.580;2024-03-23T06:00:58;9.20;99.90
21759;DHT22;11041;50.854;20.580;2024-03-23T06:03:28;9.60;99.90
21759;DHT22;11041;50.854;20.580;2024-03-23T06:05:55;9.70;99.90
21759;DHT22;11041;50.854;20.580;2024-03-23T06:08:24;10.20;99.90
21759;DHT22;11041;50.854;20.580;2024-03-23T06:10:51;9.60;99.90
21759;DHT22;11041;50.854;20.580;2024-03-23T06:13:20;9.70;99.90
21759;DHT22;11041;50.854;20.580;2024-03-23T06:15:50;9.60;99.90
21759;DHT22;11041;50.854;20.580;2024-03-23T06:18:19;9.60;99.90
21759;DHT22;11041;50.854;20.580;2024-03-23T06:20:47;9.60;99.90
21759;DHT22;11041;50.854;20.580;2024-03-23T06:23:13;9.30;99.90
21759;DHT22;11041;50.854;20.580;2024-03-23T06:25:42;9.60;99.90
21759;DHT22;11041;50.854;20.580;2024-03-23T06:28:09;9.60;99.90
21759;DHT22;11041;50.854;20.580;2024-03-23T06:30:36;9.50;99.90
21759;DHT22;11041;50.854;20.580;2024-03-23T06:33:03;9.60;99.90
21759;DHT22;11041;50.854;20.580;2024-03-23T06:35:29;9.60;99.90
21759;DHT22;11041;50.854;20.580;2024-03-23T06:37:56;9.90;99.90
21759;DHT22;11041;50.854;20.580;2024-03-23T06:40:24;9.80;99.90
21759;DHT22;11041;50.854;20.580;2024-03-23T06:42:50;9.70;99.90
21759;DHT22;11041;50.854;20.580;2024-03-23T06:45:17;9.80;99.90
21759;DHT22;11041;50.854;20.580;2024-03-23T06:47:49;9.80;99.90
21759;DHT22;11041;50.854;20.580;2024-03-23T06:50:18;9.90;99.90
21759;DHT22;11041;50.854;20.580;2024-03-23T06:52:50;9.90;99.90
21759;DHT22;11041;50.854;20.580;2024-03-23T06:55:19;9.90;99.90
21759;DHT22;11041;50.854;20.580;2024-03-23T06:57:46;10.00;99.90
21759;DHT22;11041;50.854;20.580;2024-03-23T07:00:13;10.00;99.90
21759;DHT22;11041;50.854;20.580;2024-03-23T07:02:41;10.10;99.90
21759;DHT22;11041;50.854;20.580;2024-03-23T07:05:07;10.20;99.90
21759;DHT22;11041;50.854;20.580;2024-03-23T07:07:34;10.20;99.90
21759;DHT22;11041;50.854;20.580;2024-03-23T07:10:00;10.20;99.90
21759;DHT22;11041;50.854;20.580;2024-03-23T07:12:28;10.30;99.90
21759;DHT22;11041;50.854;20.580;2024-03-23T07:14:54;10.30;99.90
21759;DHT22;11041;50.854;20.580;2024-03-23T07:17:22;10.30;99.90
21759;DHT22;11041;50.854;20.580;2024-03-23T07:19:48;10.30;99.90
21759;DHT22;11041;50.854;20.580;2024-03-23T07:22:17;10.20;99.90
21759;DHT22;11041;50.854;20.580;2024-03-23T07:24:46;10.20;99.90
21759;DHT22;11041;50.854;20.580;2024-03-23T07:27:14;9.80;99.90
21759;DHT22;11041;50.854;20.580;2024-03-23T07:29:40;10.20;99.90
21759;DHT22;11041;50.854;20.580;2024-03-23T07:32:08;10.00;99.90
21759;DHT22;11041;50.854;20.580;2024-03-23T07:34:39;10.10;99.90
21759;DHT22;11041;50.854;20.580;2024-03-23T07:37:05;10.00;99.90
21759;DHT22;11041;50.854;20.580;2024-03-23T07:39:32;9.90;99.90
21759;DHT22;11041;50.854;20.580;2024-03-23T07:42:00;9.80;99.90
21759;DHT22;11041;50.854;20.580;2024-03-23T07:44:27;9.90;99.90
21759;DHT22;11041;50.854;20.580;2024-03-23T07:46:54;9.70;99.90
21759;DHT22;11041;50.854;20.580;2024-03-23T07:49:21;9.80;99.90
21759;DHT22;11041;50.854;20.580;2024-03-23T07:51:47;9.90;99.90
21759;DHT22;11041;50.854;20.580;2024-03-23T07:54:16;10.00;99.90
21759;DHT22;11041;50.854;20.580;2024-03-23T07:56:45;10.10;99.90
21759;DHT22;11041;50.854;20.580;2024-03-23T07:59:11;10.10;99.90
21759;DHT22;11041;50.854;20.580;2024-03-23T08:01:38;10.20;99.90
21759;DHT22;11041;50.854;20.580;2024-03-23T08:04:05;10.20;99.90
21759;DHT22;11041;50.854;20.580;2024-03-23T08:06:34;10.30;99.90
21759;DHT22;11041;50.854;20.580;2024-03-23T08:09:02;10.30;99.90
21759;DHT22;11041;50.854;20.580;2024-03-23T08:11:30;10.40;99.90
21759;DHT22;11041;50.854;20.580;2024-03-23T08:13:58;10.40;99.90
21759;DHT22;11041;50.854;20.580;2024-03-23T08:16:27;10.50;99.90
21759;DHT22;11041;50.854;20.580;2024-03-23T08:18:54;10.50;99.90
21759;DHT22;11041;50.854;20.580;2024-03-23T08:21:24;10.60;99.90
21759;DHT22;11041;50.854;20.580;2024-03-23T08:23:52;10.70;99.90
21759;DHT22;11041;50.854;20.580;2024-03-23T08:26:21;10.70;99.90
21759;DHT22;11041;50.854;20.580;2024-03-23T08:28:47;10.70;99.90
21759;DHT22;11041;50.854;20.580;2024-03-23T08:31:15;10.80;99.90
21759;DHT22;11041;50.854;20.580;2024-03-23T08:33:41;10.80;99.90
21759;DHT22;11041;50.854;20.580;2024-03-23T08:36:11;10.70;99.90
21759;DHT22;11041;50.854;20.580;2024-03-23T08:38:40;10.60;99.90
21759;DHT22;11041;50.854;20.580;2024-03-23T08:41:09;10.80;99.90
21759;DHT22;11041;50.854;20.580;2024-03-23T08:43:37;11.10;99.90
21759;DHT22;11041;50.854;20.580;2024-03-23T08:46:16;11.20;99.90
21759;DHT22;11041;50.854;20.580;2024-03-23T08:48:46;11.40;99.90
21759;DHT22;11041;50.854;20.580;2024-03-23T08:51:17;11.50;99.90
21759;DHT22;11041;50.854;20.580;2024-03-23T08:53:44;11.60;99.90
21759;DHT22;11041;50.854;20.580;2024-03-23T08:56:12;11.60;99.90
21759;DHT22;11041;50.854;20.580;2024-03-23T08:58:39;11.60;99.90
21759;DHT22;11041;50.854;20.580;2024-03-23T09:01:11;11.60;99.90
21759;DHT22;11041;50.854;20.580;2024-03-23T09:03:41;11.50;99.90
21759;DHT22;11041;50.854;20.580;2024-03-23T09:06:13;11.70;99.90
21759;DHT22;11041;50.854;20.580;2024-03-23T09:08:40;11.70;99.90
21759;DHT22;11041;50.854;20.580;2024-03-23T09:11:13;11.90;99.90
21759;DHT22;11041;50.854;20.580;2024-03-23T09:13:40;12.10;99.90
21759;DHT22;11041;50.854;20.580;2024-03-23T09:16:08;12.30;99.90
21759;DHT22;11041;50.854;20.580;2024-03-23T09:18:36;12.30;99.90
21759;DHT22;11041;50.854;20.580;2024-03-23T09:21:04;12.40;99.90
21759;DHT22;11041;50.854;20.580;2024-03-23T09:23:39;12.30;99.90
21759;DHT22;11041;50.854;20.580;2024-03-23T09:26:07;12.40;99.90
21759;DHT22;11041;50.854;20.580;2024-03-23T09:28:33;12.40;99.90
21759;DHT22;11041;50.854;20.580;2024-03-23T09:31:08;12.60;99.90
21759;DHT22;11041;50.854;20.580;2024-03-23T09:33:35;12.70;99.90
21759;DHT22;11041;50.854;20.580;2024-03-23T09:36:06;12.80;99.90
21759;DHT22;11041;50.854;20.580;2024-03-23T09:38:41;12.80;99.90
21759;DHT22;11041;50.854;20.580;2024-03-23T09:41:10;12.70;99.90
21759;DHT22;11041;50.854;20.580;2024-03-23T09:43:37;12.60;99.90
21759;DHT22;11041;50.854;20.580;2024-03-23T09:46:06;12.70;99.90
21759;DHT22;11041;50.854;20.580;2024-03-23T09:48:34;12.80;99.90
21759;DHT22;11041;50.854;20.580;2024-03-23T09:51:02;12.70;99.90
21759;DHT22;11041;50.854;20.580;2024-03-23T09:53:29;12.90;99.90
21759;DHT22;11041;50.854;20.580;2024-03-23T09:55:55;13.00;99.90
21759;DHT22;11041;50.854;20.580;2024-03-23T09:58:24;12.90;99.90
21759;DHT22;11041;50.854;20.580;2024-03-23T10:00:50;12.90;99.90
21759;DHT22;11041;50.854;20.580;2024-03-23T10:03:19;13.00;99.90
21759;DHT22;11041;50.854;20.580;2024-03-23T10:05:45;13.10;99.90
21759;DHT22;11041;50.854;20.580;2024-03-23T10:10:42;13.50;99.90
21759;DHT22;11041;50.854;20.580;2024-03-23T10:13:10;13.50;99.90
21759;DHT22;11041;50.854;20.580;2024-03-23T10:15:39;13.30;99.90
21759;DHT22;11041;50.854;20.580;2024-03-23T10:18:17;13.40;99.90
21759;DHT22;11041;50.854;20.580;2024-03-23T10:23:42;13.60;99.90
21759;DHT22;11041;50.854;20.580;2024-03-23T10:26:14;13.70;99.90
21759;DHT22;11041;50.854;20.580;2024-03-23T10:29:00;13.90;99.90
21759;DHT22;11041;50.854;20.580;2024-03-23T10:31:38;14.00;99.90
21759;DHT22;11041;50.854;20.580;2024-03-23T10:34:07;14.20;99.90
21759;DHT22;11041;50.854;20.580;2024-03-23T10:36:38;14.30;99.90
21759;DHT22;11041;50.854;20.580;2024-03-23T10:39:10;14.10;99.90
21759;DHT22;11041;50.854;20.580;2024-03-23T10:41:46;14.20;99.90
21759;DHT22;11041;50.854;20.580;2024-03-23T10:44:20;14.40;99.90
21759;DHT22;11041;50.854;20.580;2024-03-23T10:46:50;14.30;99.90
21759;DHT22;11041;50.854;20.580;2024-03-23T10:49:17;14.20;99.90
21759;DHT22;11041;50.854;20.580;2024-03-23T10:51:48;14.20;99.90
21759;DHT22;11041;50.854;20.580;2024-03-23T10:54:14;14.30;99.90
21759;DHT22;11041;50.854;20.580;2024-03-23T10:56:43;14.50;99.90
21759;DHT22;11041;50.854;20.580;2024-03-23T10:59:14;14.40;99.90
21759;DHT22;11041;50.854;20.580;2024-03-23T11:01:58;14.60;99.90
21759;DHT22;11041;50.854;20.580;2024-03-23T11:04:36;14.70;99.90
21759;DHT22;11041;50.854;20.580;2024-03-23T11:07:38;14.90;99.90
21759;DHT22;11041;50.854;20.580;2024-03-23T11:10:25;15.00;99.90
21759;DHT22;11041;50.854;20.580;2024-03-23T11:12:54;15.10;99.90
21759;DHT22;11041;50.854;20.580;2024-03-23T11:15:21;15.40;99.90
21759;DHT22;11041;50.854;20.580;2024-03-23T11:18:03;15.40;99.90
21759;DHT22;11041;50.854;20.580;2024-03-23T11:20:34;15.50;99.90
21759;DHT22;11041;50.854;20.580;2024-03-23T11:23:01;15.70;99.90
21759;DHT22;11041;50.854;20.580;2024-03-23T11:25:29;15.80;99.90
21759;DHT22;11041;50.854;20.580;2024-03-23T11:28:11;15.60;99.90
21759;DHT22;11041;50.854;20.580;2024-03-23T11:30:38;15.80;99.90
21759;DHT22;11041;50.854;20.580;2024-03-23T11:33:04;15.70;99.90
21759;DHT22;11041;50.854;20.580;2024-03-23T11:40:33;15.80;99.90
21759;DHT22;11041;50.854;20.580;2024-03-23T11:43:08;15.90;99.90
21759;DHT22;11041;50.854;20.580;2024-03-23T11:45:38;16.20;99.90
21759;DHT22;11041;50.854;20.580;2024-03-23T11:48:15;16.40;99.90
21759;DHT22;11041;50.854;20.580;2024-03-23T11:50:50;16.20;99.90
21759;DHT22;11041;50.854;20.580;2024-03-23T11:53:23;16.20;99.90
21759;DHT22;11041;50.854;20.580;2024-03-23T11:58:25;16.70;99.90
21759;DHT22;11041;50.854;20.580;2024-03-23T12:00:59;16.80;99.90
21759;DHT22;11041;50.854;20.580;2024-03-23T12:03:28;17.20;99.90
21759;DHT22;11041;50.854;20.580;2024-03-23T12:06:02;17.20;99.90
21759;DHT22;11041;50.854;20.580;2024-03-23T12:11:16;17.60;99.90
21759;DHT22;11041;50.854;20.580;2024-03-23T12:13:44;18.20;99.90
21759;DHT22;11041;50.854;20.580;2024-03-23T12:16:20;18.20;99.90
21759;DHT22;11041;50.854;20.580;2024-03-23T12:18:49;18.50;99.90
21759;DHT22;11041;50.854;20.580;2024-03-23T12:21:17;18.20;99.90
21759;DHT22;11041;50.854;20.580;2024-03-23T12:23:44;18.00;99.90
21759;DHT22;11041;50.854;20.580;2024-03-23T12:26:14;18.40;99.90
21759;DHT22;11041;50.854;20.580;2024-03-23T12:28:41;18.50;99.90
21759;DHT22;11041;50.854;20.580;2024-03-23T12:31:08;18.60;99.90
21759;DHT22;11041;50.854;20.580;2024-03-23T12:33:34;18.40;99.90
21759;DHT22;11041;50.854;20.580;2024-03-23T12:36:00;18.30;99.90
21759;DHT22;11041;50.854;20.580;2024-03-23T12:38:27;18.50;99.90
21759;DHT22;11041;50.854;20.580;2024-03-23T12:40:53;18.70;99.90
21759;DHT22;11041;50.854;20.580;2024-03-23T12:43:20;18.80;99.90
21759;DHT22;11041;50.854;20.580;2024-03-23T12:45:47;18.70;99.90
21759;DHT22;11041;50.854;20.580;2024-03-23T12:48:15;18.80;99.90
21759;DHT22;11041;50.854;20.580;2024-03-23T12:50:42;18.90;99.90
21759;DHT22;11041;50.854;20.580;2024-03-23T12:53:09;19.00;99.90
21759;DHT22;11041;50.854;20.580;2024-03-23T12:55:35;19.10;99.90
21759;DHT22;11041;50.854;20.580;2024-03-23T12:58:02;18.90;99.90
21759;DHT22;11041;50.854;20.580;2024-03-23T13:00:29;19.00;99.90
21759;DHT22;11041;50.854;20.580;2024-03-23T13:02:55;18.70;99.90
21759;DHT22;11041;50.854;20.580;2024-03-23T13:05:22;18.70;99.90
21759;DHT22;11041;50.854;20.580;2024-03-23T13:07:48;18.70;99.90
21759;DHT22;11041;50.854;20.580;2024-03-23T13:10:17;18.80;99.90
21759;DHT22;11041;50.854;20.580;2024-03-23T13:15:10;19.10;99.90
21759;DHT22;11041;50.854;20.580;2024-03-23T13:17:38;19.00;99.90
21759;DHT22;11041;50.854;20.580;2024-03-23T13:20:05;19.10;99.90
21759;DHT22;11041;50.854;20.580;2024-03-23T13:22:32;19.20;99.90
21759;DHT22;11041;50.854;20.580;2024-03-23T13:24:58;19.20;99.90
21759;DHT22;11041;50.854;20.580;2024-03-23T13:27:26;19.30;99.90
21759;DHT22;11041;50.854;20.580;2024-03-23T13:29:54;19.40;99.90
21759;DHT22;11041;50.854;20.580;2024-03-23T13:32:21;19.20;99.90
21759;DHT22;11041;50.854;20.580;2024-03-23T13:34:47;19.30;99.90
21759;DHT22;11041;50.854;20.580;2024-03-23T13:37:17;19.30;99.90
21759;DHT22;11041;50.854;20.580;2024-03-23T13:39:43;19.40;99.90
21759;DHT22;11041;50.854;20.580;2024-03-23T13:42:10;19.60;99.90
21759;DHT22;11041;50.854;20.580;2024-03-23T13:44:38;19.40;99.90
21759;DHT22;11041;50.854;20.580;2024-03-23T13:47:05;19.40;99.90
21759;DHT22;11041;50.854;20.580;2024-03-23T13:49:31;19.40;99.90
21759;DHT22;11041;50.854;20.580;2024-03-23T13:52:00;19.40;99.90
21759;DHT22;11041;50.854;20.580;2024-03-23T13:54:27;19.20;99.70
21759;DHT22;11041;50.854;20.580;2024-03-23T13:56:55;19.20;99.90
21759;DHT22;11041;50.854;20.580;2024-03-23T13:59:23;19.50;99.90
21759;DHT22;11041;50.854;20.580;2024-03-23T14:01:50;19.40;99.90
21759;DHT22;11041;50.854;20.580;2024-03-23T14:04:17;19.60;99.90
21759;DHT22;11041;50.854;20.580;2024-03-23T14:06:46;19.70;99.90
21759;DHT22;11041;50.854;20.580;2024-03-23T14:09:13;19.60;99.50
21759;DHT22;11041;50.854;20.580;2024-03-23T14:11:41;18.90;99.90
21759;DHT22;11041;50.854;20.580;2024-03-23T14:14:09;19.00;99.90
21759;DHT22;11041;50.854;20.580;2024-03-23T14:16:36;18.80;99.90
21759;DHT22;11041;50.854;20.580;2024-03-23T14:19:03;18.60;99.90
21759;DHT22;11041;50.854;20.580;2024-03-23T14:21:31;18.50;99.90
21759;DHT22;11041;50.854;20.580;2024-03-23T14:23:59;18.20;99.90
21759;DHT22;11041;50.854;20.580;2024-03-23T14:26:27;18.20;99.90
21759;DHT22;11041;50.854;20.580;2024-03-23T14:28:54;18.00;99.90
21759;DHT22;11041;50.854;20.580;2024-03-23T14:31:20;17.90;99.90
21759;DHT22;11041;50.854;20.580;2024-03-23T14:33:47;17.70;99.90
21759;DHT22;11041;50.854;20.580;2024-03-23T14:36:16;17.60;99.90
21759;DHT22;11041;50.854;20.580;2024-03-23T14:38:49;17.50;99.90
21759;DHT22;11041;50.854;20.580;2024-03-23T14:41:16;17.30;99.90
21759;DHT22;11041;50.854;20.580;2024-03-23T14:43:43;17.20;99.90
21759;DHT22;11041;50.854;20.580;2024-03-23T14:46:15;17.10;99.90
21759;DHT22;11041;50.854;20.580;2024-03-23T14:48:43;17.00;99.90
21759;DHT22;11041;50.854;20.580;2024-03-23T14:51:11;16.90;99.90
21759;DHT22;11041;50.854;20.580;2024-03-23T14:53:39;19.00;99.90
21759;DHT22;11041;50.854;20.580;2024-03-23T14:56:08;16.70;99.90
21759;DHT22;11041;50.854;20.580;2024-03-23T14:58:36;16.60;99.90
21759;DHT22;11041;50.854;20.580;2024-03-23T15:01:03;16.40;99.90
21759;DHT22;11041;50.854;20.580;2024-03-23T15:06:02;15.50;99.90
21759;DHT22;11041;50.854;20.580;2024-03-23T15:08:29;15.30;99.90
21759;DHT22;11041;50.854;20.580;2024-03-23T15:11:00;14.40;99.90
21759;DHT22;11041;50.854;20.580;2024-03-23T15:13:37;12.90;99.90
21759;DHT22;11041;50.854;20.580;2024-03-23T15:16:05;12.20;99.90
21759;DHT22;11041;50.854;20.580;2024-03-23T15:18:32;11.90;99.90
21759;DHT22;11041;50.854;20.580;2024-03-23T15:21:00;11.70;99.90
21759;DHT22;11041;50.854;20.580;2024-03-23T15:23:29;11.40;99.90
21759;DHT22;11041;50.854;20.580;2024-03-23T15:26:00;11.40;99.90
21759;DHT22;11041;50.854;20.580;2024-03-23T15:28:28;11.40;99.90
21759;DHT22;11041;50.854;20.580;2024-03-23T15:31:08;11.30;99.90
21759;DHT22;11041;50.854;20.580;2024-03-23T15:33:35;11.30;99.90
21759;DHT22;11041;50.854;20.580;2024-03-23T15:36:02;11.40;99.90
21759;DHT22;11041;50.854;20.580;2024-03-23T15:38:31;11.30;99.90
21759;DHT22;11041;50.854;20.580;2024-03-23T15:40:59;11.30;99.90
21759;DHT22;11041;50.854;20.580;2024-03-23T15:43:26;11.30;99.90
21759;DHT22;11041;50.854;20.580;2024-03-23T15:46:00;11.30;99.90
21759;DHT22;11041;50.854;20.580;2024-03-23T15:48:29;11.20;99.90
21759;DHT22;11041;50.854;20.580;2024-03-23T15:50:58;11.10;99.90
21759;DHT22;11041;50.854;20.580;2024-03-23T15:53:26;11.10;99.90
21759;DHT22;11041;50.854;20.580;2024-03-23T15:58:25;11.00;99.90
21759;DHT22;11041;50.854;20.580;2024-03-23T16:03:29;10.80;99.90
21759;DHT22;11041;50.854;20.580;2024-03-23T16:06:00;10.70;99.90
21759;DHT22;11041;50.854;20.580;2024-03-23T16:08:28;10.80;99.90
21759;DHT22;11041;50.854;20.580;2024-03-23T16:11:01;10.90;99.90
21759;DHT22;11041;50.854;20.580;2024-03-23T16:13:30;11.00;99.90
21759;DHT22;11041;50.854;20.580;2024-03-23T16:16:04;11.10;99.90
21759;DHT22;11041;50.854;20.580;2024-03-23T16:18:34;11.20;99.90
21759;DHT22;11041;50.854;20.580;2024-03-23T16:21:04;11.20;99.90
21759;DHT22;11041;50.854;20.580;2024-03-23T16:23:35;11.30;99.90
21759;DHT22;11041;50.854;20.580;2024-03-23T16:26:07;11.30;99.90
21759;DHT22;11041;50.854;20.580;2024-03-23T16:28:38;10.90;99.90
21759;DHT22;11041;50.854;20.580;2024-03-23T16:31:08;10.90;99.90
21759;DHT22;11041;50.854;20.580;2024-03-23T16:33:36;10.90;99.90
21759;DHT22;11041;50.854;20.580;2024-03-23T16:38:37;10.70;99.90
21759;DHT22;11041;50.854;20.580;2024-03-23T16:41:04;10.80;99.90
21759;DHT22;11041;50.854;20.580;2024-03-23T16:43:33;10.70;99.90
21759;DHT22;11041;50.854;20.580;2024-03-23T16:46:05;10.70;99.90
21759;DHT22;11041;50.854;20.580;2024-03-23T16:48:37;10.70;99.90
21759;DHT22;11041;50.854;20.580;2024-03-23T16:51:06;10.60;99.90
21759;DHT22;11041;50.854;20.580;2024-03-23T16:53:34;10.50;99.90